sensor_id;sensor_type;location;lat;lon;timestamp;temperature;humidity
18446;DHT22;9352;50.888;4.466;2024-01-15T00:02:12;2.70;99.90
18446;DHT22;9352;50.888;4.466;2024-01-15T00:04:41;2.70;99.90
18446;DHT22;9352;50.888;4.466;2024-01-15T00:07:09;2.70;99.90
18446;DHT22;9352;50.888;4.466;2024-01-15T00:09:36;2.70;99.90
18446;DHT22;9352;50.888;4.466;2024-01-15T00:12:03;2.60;99.90
18446;DHT22;9352;50.888;4.466;2024-01-15T00:14:30;2.70;99.90
18446;DHT22;9352;50.888;4.466;2024-01-15T00:16:57;2.70;99.90
18446;DHT22;9352;50.888;4.466;2024-01-15T00:19:24;2.60;99.90
18446;DHT22;9352;50.888;4.466;2024-01-15T00:21:53;2.70;99.90
18446;DHT22;9352;50.888;4.466;2024-01-15T00:24:20;2.70;99.90
18446;DHT22;9352;50.888;4.466;2024-01-15T00:26:47;2.60;99.90
18446;DHT22;9352;50.888;4.466;2024-01-15T00:29:14;2.60;99.90
18446;DHT22;9352;50.888;4.466;2024-01-15T00:31:41;2.60;99.90
18446;DHT22;9352;50.888;4.466;2024-01-15T00:34:08;2.60;99.90
18446;DHT22;9352;50.888;4.466;2024-01-15T00:36:35;2.60;99.90
18446;DHT22;9352;50.888;4.466;2024-01-15T00:39:03;2.60;99.90
18446;DHT22;9352;50.888;4.466;2024-01-15T00:41:30;2.70;99.90
18446;DHT22;9352;50.888;4.466;2024-01-15T00:43:57;2.70;99.90
18446;DHT22;9352;50.888;4.466;2024-01-15T00:46:24;2.80;99.90
18446;DHT22;9352;50.888;4.466;2024-01-15T00:48:51;2.90;99.90
18446;DHT22;9352;50.888;4.466;2024-01-15T00:51:18;2.90;99.90
18446;DHT22;9352;50.888;4.466;2024-01-15T00:53:45;2.90;99.90
18446;DHT22;9352;50.888;4.466;2024-01-15T00:56:13;3.00;99.90
18446;DHT22;9352;50.888;4.466;2024-01-15T00:58:40;3.00;99.90
18446;DHT22;9352;50.888;4.466;2024-01-15T01:01:07;3.00;99.90
18446;DHT22;9352;50.888;4.466;2024-01-15T01:03:33;3.00;99.90
18446;DHT22;9352;50.888;4.466;2024-01-15T01:06:00;3.10;99.90
18446;DHT22;9352;50.888;4.466;2024-01-15T01:08:27;3.10;99.90
18446;DHT22;9352;50.888;4.466;2024-01-15T01:10:56;3.10;99.90
18446;DHT22;9352;50.888;4.466;2024-01-15T01:13:24;3.10;99.90
18446;DHT22;9352;50.888;4.466;2024-01-15T01:15:51;3.10;99.90
18446;DHT22;9352;50.888;4.466;2024-01-15T01:18:18;3.00;99.90
18446;DHT22;9352;50.888;4.466;2024-01-15T01:20:45;3.00;99.90
18446;DHT22;9352;50.888;4.466;2024-01-15T01:23:12;3.00;99.90
18446;DHT22;9352;50.888;4.466;2024-01-15T01:25:39;3.00;99.90
18446;DHT22;9352;50.888;4.466;2024-01-15T01:28:06;3.00;99.90
18446;DHT22;9352;50.888;4.466;2024-01-15T01:30:34;3.00;99.90
18446;DHT22;9352;50.888;4.466;2024-01-15T01:33:01;3.00;99.90
18446;DHT22;9352;50.888;4.466;2024-01-15T01:35:27;3.00;99.90
18446;DHT22;9352;50.888;4.466;2024-01-15T01:37:54;3.00;99.90
18446;DHT22;9352;50.888;4.466;2024-01-15T01:40:21;3.00;99.90
18446;DHT22;9352;50.888;4.466;2024-01-15T01:42:48;3.00;99.90
18446;DHT22;9352;50.888;4.466;2024-01-15T01:45:14;3.00;99.90
18446;DHT22;9352;50.888;4.466;2024-01-15T01:47:43;3.00;99.90
18446;DHT22;9352;50.888;4.466;2024-01-15T01:50:10;3.00;99.90
18446;DHT22;9352;50.888;4.466;2024-01-15T01:52:38;3.00;99.90
18446;DHT22;9352;50.888;4.466;2024-01-15T01:55:06;2.90;99.90
18446;DHT22;9352;50.888;4.466;2024-01-15T01:57:34;3.00;99.90
18446;DHT22;9352;50.888;4.466;2024-01-15T02:00:03;3.00;99.90
18446;DHT22;9352;50.888;4.466;2024-01-15T02:02:31;3.00;99.90
18446;DHT22;9352;50.888;4.466;2024-01-15T02:05:00;2.90;99.90
18446;DHT22;9352;50.888;4.466;2024-01-15T02:07:27;3.00;99.90
18446;DHT22;9352;50.888;4.466;2024-01-15T02:09:54;3.00;99.90
18446;DHT22;9352;50.888;4.466;2024-01-15T02:12:21;3.00;99.90
18446;DHT22;9352;50.888;4.466;2024-01-15T02:14:48;3.00;99.90
18446;DHT22;9352;50.888;4.466;2024-01-15T02:17:15;3.00;99.90
18446;DHT22;9352;50.888;4.466;2024-01-15T02:19:42;3.00;99.90
18446;DHT22;9352;50.888;4.466;2024-01-15T02:22:10;3.10;99.90
18446;DHT22;9352;50.888;4.466;2024-01-15T02:24:38;3.10;99.90
18446;DHT22;9352;50.888;4.466;2024-01-15T02:27:05;3.10;99.90
18446;DHT22;9352;50.888;4.466;2024-01-15T02:29:32;3.10;99.90
18446;DHT22;9352;50.888;4.466;2024-01-15T02:31:59;3.10;99.90
18446;DHT22;9352;50.888;4.466;2024-01-15T02:34:31;3.10;99.90
18446;DHT22;9352;50.888;4.466;2024-01-15T02:36:58;3.10;99.90
18446;DHT22;9352;50.888;4.466;2024-01-15T02:39:25;3.10;99.90
18446;DHT22;9352;50.888;4.466;2024-01-15T02:41:53;3.20;99.90
18446;DHT22;9352;50.888;4.466;2024-01-15T02:44:21;3.20;99.90
18446;DHT22;9352;50.888;4.466;2024-01-15T02:46:48;3.20;99.90
18446;DHT22;9352;50.888;4.466;2024-01-15T02:49:15;3.20;99.90
18446;DHT22;9352;50.888;4.466;2024-01-15T02:51:42;3.20;99.90
18446;DHT22;9352;50.888;4.466;2024-01-15T02:54:09;3.10;99.90
18446;DHT22;9352;50.888;4.466;2024-01-15T02:56:36;3.20;99.90
18446;DHT22;9352;50.888;4.466;2024-01-15T02:59:04;3.20;99.90
18446;DHT22;9352;50.888;4.466;2024-01-15T03:01:31;3.10;99.90
18446;DHT22;9352;50.888;4.466;2024-01-15T03:03:58;3.20;99.90
18446;DHT22;9352;50.888;4.466;2024-01-15T03:06:25;3.10;99.90
18446;DHT22;9352;50.888;4.466;2024-01-15T03:08:51;3.10;99.90
18446;DHT22;9352;50.888;4.466;2024-01-15T03:11:18;3.10;99.90
18446;DHT22;9352;50.888;4.466;2024-01-15T03:13:45;3.20;99.90
18446;DHT22;9352;50.888;4.466;2024-01-15T03:16:13;3.20;99.90
18446;DHT22;9352;50.888;4.466;2024-01-15T03:18:40;3.10;99.90
18446;DHT22;9352;50.888;4.466;2024-01-15T03:21:07;3.10;99.90
18446;DHT22;9352;50.888;4.466;2024-01-15T03:23:34;3.10;99.90
18446;DHT22;9352;50.888;4.466;2024-01-15T03:26:01;3.10;99.90
18446;DHT22;9352;50.888;4.466;2024-01-15T03:28:28;3.10;99.90
18446;DHT22;9352;50.888;4.466;2024-01-15T03:30:56;3.00;99.90
18446;DHT22;9352;50.888;4.466;2024-01-15T03:33:24;3.00;99.90
18446;DHT22;9352;50.888;4.466;2024-01-15T03:35:51;3.00;99.90
18446;DHT22;9352;50.888;4.466;2024-01-15T03:38:17;3.00;99.90
18446;DHT22;9352;50.888;4.466;2024-01-15T03:40:44;3.00;99.90
18446;DHT22;9352;50.888;4.466;2024-01-15T03:43:12;3.00;99.90
18446;DHT22;9352;50.888;4.466;2024-01-15T03:45:39;3.00;99.90
18446;DHT22;9352;50.888;4.466;2024-01-15T03:48:06;3.00;99.90
18446;DHT22;9352;50.888;4.466;2024-01-15T03:50:34;3.00;99.90
18446;DHT22;9352;50.888;4.466;2024-01-15T03:53:01;3.00;99.90
18446;DHT22;9352;50.888;4.466;2024-01-15T03:55:28;3.00;99.90
18446;DHT22;9352;50.888;4.466;2024-01-15T03:57:55;3.00;99.90
18446;DHT22;9352;50.888;4.466;2024-01-15T04:00:21;3.00;99.90
18446;DHT22;9352;50.888;4.466;2024-01-15T04:02:48;3.00;99.90
18446;DHT22;9352;50.888;4.466;2024-01-15T04:05:15;3.00;99.90
18446;DHT22;9352;50.888;4.466;2024-01-15T04:07:44;3.00;99.90
18446;DHT22;9352;50.888;4.466;2024-01-15T04:10:10;3.00;99.90
18446;DHT22;9352;50.888;4.466;2024-01-15T04:12:37;3.00;99.90
18446;DHT22;9352;50.888;4.466;2024-01-15T04:15:05;3.00;99.90
18446;DHT22;9352;50.888;4.466;2024-01-15T04:17:32;3.00;99.90
18446;DHT22;9352;50.888;4.466;2024-01-15T04:19:59;3.00;99.90
18446;DHT22;9352;50.888;4.466;2024-01-15T04:22:26;3.00;99.90
18446;DHT22;9352;50.888;4.466;2024-01-15T04:24:54;3.00;99.90
18446;DHT22;9352;50.888;4.466;2024-01-15T04:27:21;3.00;99.90
18446;DHT22;9352;50.888;4.466;2024-01-15T04:29:48;2.90;99.90
18446;DHT22;9352;50.888;4.466;2024-01-15T04:32:15;2.90;99.90
18446;DHT22;9352;50.888;4.466;2024-01-15T04:34:42;3.00;99.90
18446;DHT22;9352;50.888;4.466;2024-01-15T04:37:09;3.00;99.90
18446;DHT22;9352;50.888;4.466;2024-01-15T04:39:36;3.00;99.90
18446;DHT22;9352;50.888;4.466;2024-01-15T04:42:05;3.00;99.90
18446;DHT22;9352;50.888;4.466;2024-01-15T04:44:31;2.90;99.90
18446;DHT22;9352;50.888;4.466;2024-01-15T04:46:58;2.90;99.90
18446;DHT22;9352;50.888;4.466;2024-01-15T04:49:25;2.90;99.90
18446;DHT22;9352;50.888;4.466;2024-01-15T04:51:53;2.90;99.90
18446;DHT22;9352;50.888;4.466;2024-01-15T04:54:19;2.90;99.90
18446;DHT22;9352;50.888;4.466;2024-01-15T04:56:46;2.90;99.90
18446;DHT22;9352;50.888;4.466;2024-01-15T04:59:15;2.90;99.90
18446;DHT22;9352;50.888;4.466;2024-01-15T05:01:41;2.90;99.90
18446;DHT22;9352;50.888;4.466;2024-01-15T05:04:08;3.00;99.90
18446;DHT22;9352;50.888;4.466;2024-01-15T05:06:35;3.00;99.90
18446;DHT22;9352;50.888;4.466;2024-01-15T05:09:02;3.00;99.90
18446;DHT22;9352;50.888;4.466;2024-01-15T05:11:29;3.00;99.90
18446;DHT22;9352;50.888;4.466;2024-01-15T05:13:56;3.00;99.90
18446;DHT22;9352;50.888;4.466;2024-01-15T05:16:24;3.00;99.90
18446;DHT22;9352;50.888;4.466;2024-01-15T05:18:51;3.00;99.90
18446;DHT22;9352;50.888;4.466;2024-01-15T05:21:18;3.00;99.90
18446;DHT22;9352;50.888;4.466;2024-01-15T05:23:45;3.10;99.90
18446;DHT22;9352;50.888;4.466;2024-01-15T05:26:12;3.00;99.90
18446;DHT22;9352;50.888;4.466;2024-01-15T05:28:41;3.00;99.90
18446;DHT22;9352;50.888;4.466;2024-01-15T05:31:08;3.00;99.90
18446;DHT22;9352;50.888;4.466;2024-01-15T05:33:36;2.90;99.90
18446;DHT22;9352;50.888;4.466;2024-01-15T05:36:04;2.90;99.90
18446;DHT22;9352;50.888;4.466;2024-01-15T05:38:31;2.90;99.90
18446;DHT22;9352;50.888;4.466;2024-01-15T05:40:58;2.80;99.90
18446;DHT22;9352;50.888;4.466;2024-01-15T05:43:25;2.80;99.90
18446;DHT22;9352;50.888;4.466;2024-01-15T05:45:52;2.80;99.90
18446;DHT22;9352;50.888;4.466;2024-01-15T05:48:19;2.70;99.90
18446;DHT22;9352;50.888;4.466;2024-01-15T05:50:47;2.70;99.90
18446;DHT22;9352;50.888;4.466;2024-01-15T05:53:14;2.60;99.90
18446;DHT22;9352;50.888;4.466;2024-01-15T05:55:41;2.60;99.90
18446;DHT22;9352;50.888;4.466;2024-01-15T05:58:08;2.50;99.90
18446;DHT22;9352;50.888;4.466;2024-01-15T06:00:34;2.50;99.90
18446;DHT22;9352;50.888;4.466;2024-01-15T06:03:04;2.40;99.90
18446;DHT22;9352;50.888;4.466;2024-01-15T06:05:31;2.40;99.90
18446;DHT22;9352;50.888;4.466;2024-01-15T06:07:59;2.40;99.90
18446;DHT22;9352;50.888;4.466;2024-01-15T06:10:26;2.40;99.90
18446;DHT22;9352;50.888;4.466;2024-01-15T06:12:53;2.40;99.90
18446;DHT22;9352;50.888;4.466;2024-01-15T06:15:19;2.40;99.90
18446;DHT22;9352;50.888;4.466;2024-01-15T06:17:46;2.40;99.90
18446;DHT22;9352;50.888;4.466;2024-01-15T06:20:14;2.30;99.90
18446;DHT22;9352;50.888;4.466;2024-01-15T06:22:40;2.30;99.90
18446;DHT22;9352;50.888;4.466;2024-01-15T06:25:09;2.30;99.90
18446;DHT22;9352;50.888;4.466;2024-01-15T06:27:36;2.40;99.90
18446;DHT22;9352;50.888;4.466;2024-01-15T06:30:03;2.40;99.90
18446;DHT22;9352;50.888;4.466;2024-01-15T06:32:30;2.40;99.90
18446;DHT22;9352;50.888;4.466;2024-01-15T06:34:57;2.40;99.90
18446;DHT22;9352;50.888;4.466;2024-01-15T06:37:24;2.40;99.90
18446;DHT22;9352;50.888;4.466;2024-01-15T06:39:51;2.30;99.90
18446;DHT22;9352;50.888;4.466;2024-01-15T06:42:19;2.30;99.90
18446;DHT22;9352;50.888;4.466;2024-01-15T06:44:47;2.40;99.90
18446;DHT22;9352;50.888;4.466;2024-01-15T06:47:14;2.30;99.90
18446;DHT22;9352;50.888;4.466;2024-01-15T06:49:43;2.30;99.90
18446;DHT22;9352;50.888;4.466;2024-01-15T06:52:10;2.30;99.90
18446;DHT22;9352;50.888;4.466;2024-01-15T06:54:37;2.20;99.90
18446;DHT22;9352;50.888;4.466;2024-01-15T06:57:05;2.20;99.90
18446;DHT22;9352;50.888;4.466;2024-01-15T06:59:33;2.20;99.90
18446;DHT22;9352;50.888;4.466;2024-01-15T07:02:00;2.20;99.90
18446;DHT22;9352;50.888;4.466;2024-01-15T07:04:28;2.20;99.90
18446;DHT22;9352;50.888;4.466;2024-01-15T07:06:55;2.20;99.90
18446;DHT22;9352;50.888;4.466;2024-01-15T07:09:22;2.20;99.90
18446;DHT22;9352;50.888;4.466;2024-01-15T07:11:49;2.20;99.90
18446;DHT22;9352;50.888;4.466;2024-01-15T07:14:16;2.20;99.90
18446;DHT22;9352;50.888;4.466;2024-01-15T07:16:44;2.10;99.90
18446;DHT22;9352;50.888;4.466;2024-01-15T07:19:11;2.10;99.90
18446;DHT22;9352;50.888;4.466;2024-01-15T07:21:38;2.10;99.90
18446;DHT22;9352;50.888;4.466;2024-01-15T07:24:08;2.10;99.90
18446;DHT22;9352;50.888;4.466;2024-01-15T07:26:36;2.10;99.90
18446;DHT22;9352;50.888;4.466;2024-01-15T07:29:02;2.20;99.90
18446;DHT22;9352;50.888;4.466;2024-01-15T07:31:30;2.10;99.90
18446;DHT22;9352;50.888;4.466;2024-01-15T07:33:59;2.10;99.90
18446;DHT22;9352;50.888;4.466;2024-01-15T07:36:26;2.10;99.90
18446;DHT22;9352;50.888;4.466;2024-01-15T07:38:53;2.10;99.90
18446;DHT22;9352;50.888;4.466;2024-01-15T07:41:20;2.10;99.90
18446;DHT22;9352;50.888;4.466;2024-01-15T07:43:47;2.20;99.90
18446;DHT22;9352;50.888;4.466;2024-01-15T07:46:14;2.20;99.90
18446;DHT22;9352;50.888;4.466;2024-01-15T07:48:41;2.30;99.90
18446;DHT22;9352;50.888;4.466;2024-01-15T07:51:10;2.30;99.90
18446;DHT22;9352;50.888;4.466;2024-01-15T07:53:37;2.40;99.90
18446;DHT22;9352;50.888;4.466;2024-01-15T07:56:04;2.40;99.90
18446;DHT22;9352;50.888;4.466;2024-01-15T07:58:31;2.50;99.90
18446;DHT22;9352;50.888;4.466;2024-01-15T08:00:58;2.50;99.90
18446;DHT22;9352;50.888;4.466;2024-01-15T08:03:24;2.60;99.90
18446;DHT22;9352;50.888;4.466;2024-01-15T08:05:51;2.60;99.90
18446;DHT22;9352;50.888;4.466;2024-01-15T08:08:21;2.60;99.90
18446;DHT22;9352;50.888;4.466;2024-01-15T08:10:48;2.70;99.90
18446;DHT22;9352;50.888;4.466;2024-01-15T08:13:15;2.70;99.90
18446;DHT22;9352;50.888;4.466;2024-01-15T08:15:42;2.80;99.90
18446;DHT22;9352;50.888;4.466;2024-01-15T08:18:09;2.80;99.90
18446;DHT22;9352;50.888;4.466;2024-01-15T08:20:36;2.90;99.90
18446;DHT22;9352;50.888;4.466;2024-01-15T08:23:03;2.90;99.90
18446;DHT22;9352;50.888;4.466;2024-01-15T08:25:32;3.00;99.90
18446;DHT22;9352;50.888;4.466;2024-01-15T08:27:59;3.00;99.90
18446;DHT22;9352;50.888;4.466;2024-01-15T08:30:26;3.00;99.90
18446;DHT22;9352;50.888;4.466;2024-01-15T08:32:53;3.00;99.90
18446;DHT22;9352;50.888;4.466;2024-01-15T08:35:20;3.00;99.90
18446;DHT22;9352;50.888;4.466;2024-01-15T08:37:48;3.00;99.90
18446;DHT22;9352;50.888;4.466;2024-01-15T08:40:15;3.00;99.90
18446;DHT22;9352;50.888;4.466;2024-01-15T08:42:44;3.00;99.90
18446;DHT22;9352;50.888;4.466;2024-01-15T08:45:11;3.10;99.90
18446;DHT22;9352;50.888;4.466;2024-01-15T08:47:38;3.10;99.90
18446;DHT22;9352;50.888;4.466;2024-01-15T08:50:06;3.10;99.90
18446;DHT22;9352;50.888;4.466;2024-01-15T08:52:36;3.10;99.90
18446;DHT22;9352;50.888;4.466;2024-01-15T08:55:03;3.20;99.90
18446;DHT22;9352;50.888;4.466;2024-01-15T08:57:32;3.10;99.90
18446;DHT22;9352;50.888;4.466;2024-01-15T09:00:01;3.20;99.90
18446;DHT22;9352;50.888;4.466;2024-01-15T09:02:29;3.20;99.90
18446;DHT22;9352;50.888;4.466;2024-01-15T09:04:56;3.10;99.90
18446;DHT22;9352;50.888;4.466;2024-01-15T09:07:23;3.20;99.90
18446;DHT22;9352;50.888;4.466;2024-01-15T09:09:51;3.20;99.90
18446;DHT22;9352;50.888;4.466;2024-01-15T09:12:17;3.20;99.90
18446;DHT22;9352;50.888;4.466;2024-01-15T09:14:46;3.20;99.90
18446;DHT22;9352;50.888;4.466;2024-01-15T09:17:14;3.20;99.90
18446;DHT22;9352;50.888;4.466;2024-01-15T09:19:41;3.10;99.90
18446;DHT22;9352;50.888;4.466;2024-01-15T09:22:08;3.10;99.90
18446;DHT22;9352;50.888;4.466;2024-01-15T09:24:35;3.00;99.90
18446;DHT22;9352;50.888;4.466;2024-01-15T09:27:02;3.00;99.90
18446;DHT22;9352;50.888;4.466;2024-01-15T09:29:29;3.00;99.90
18446;DHT22;9352;50.888;4.466;2024-01-15T09:31:56;3.00;99.90
18446;DHT22;9352;50.888;4.466;2024-01-15T09:34:24;3.10;99.90
18446;DHT22;9352;50.888;4.466;2024-01-15T09:36:51;3.10;99.90
18446;DHT22;9352;50.888;4.466;2024-01-15T09:39:18;3.10;99.90
18446;DHT22;9352;50.888;4.466;2024-01-15T09:41:45;3.10;99.90
18446;DHT22;9352;50.888;4.466;2024-01-15T09:44:14;3.20;99.90
18446;DHT22;9352;50.888;4.466;2024-01-15T09:46:41;3.20;99.90
18446;DHT22;9352;50.888;4.466;2024-01-15T09:49:10;3.20;99.90
18446;DHT22;9352;50.888;4.466;2024-01-15T09:51:39;3.20;99.90
18446;DHT22;9352;50.888;4.466;2024-01-15T09:54:07;3.20;99.90
18446;DHT22;9352;50.888;4.466;2024-01-15T09:56:34;3.30;99.90
18446;DHT22;9352;50.888;4.466;2024-01-15T09:59:01;3.30;99.90
18446;DHT22;9352;50.888;4.466;2024-01-15T10:01:30;3.30;99.90
18446;DHT22;9352;50.888;4.466;2024-01-15T10:03:58;3.40;99.90
18446;DHT22;9352;50.888;4.466;2024-01-15T10:06:27;3.50;99.90
18446;DHT22;9352;50.888;4.466;2024-01-15T10:08:57;3.60;99.90
18446;DHT22;9352;50.888;4.466;2024-01-15T10:11:25;3.70;99.90
18446;DHT22;9352;50.888;4.466;2024-01-15T10:13:52;3.80;99.90
18446;DHT22;9352;50.888;4.466;2024-01-15T10:16:20;3.80;99.90
18446;DHT22;9352;50.888;4.466;2024-01-15T10:18:47;3.80;99.90
18446;DHT22;9352;50.888;4.466;2024-01-15T10:21:14;3.80;99.90
18446;DHT22;9352;50.888;4.466;2024-01-15T10:23:41;3.80;99.90
18446;DHT22;9352;50.888;4.466;2024-01-15T10:26:10;3.80;99.90
18446;DHT22;9352;50.888;4.466;2024-01-15T10:28:37;3.80;99.90
18446;DHT22;9352;50.888;4.466;2024-01-15T10:31:05;3.80;99.90
18446;DHT22;9352;50.888;4.466;2024-01-15T10:33:31;3.90;99.90
18446;DHT22;9352;50.888;4.466;2024-01-15T10:36:00;4.00;99.90
18446;DHT22;9352;50.888;4.466;2024-01-15T10:38:27;4.10;99.90
18446;DHT22;9352;50.888;4.466;2024-01-15T10:40:55;4.10;99.90
18446;DHT22;9352;50.888;4.466;2024-01-15T10:43:24;4.20;99.90
18446;DHT22;9352;50.888;4.466;2024-01-15T10:45:51;4.40;99.90
18446;DHT22;9352;50.888;4.466;2024-01-15T10:48:19;4.40;99.90
18446;DHT22;9352;50.888;4.466;2024-01-15T10:50:46;4.40;99.90
18446;DHT22;9352;50.888;4.466;2024-01-15T10:53:16;4.30;99.90
18446;DHT22;9352;50.888;4.466;2024-01-15T10:55:43;4.50;99.90
18446;DHT22;9352;50.888;4.466;2024-01-15T10:58:15;4.70;99.90
18446;DHT22;9352;50.888;4.466;2024-01-15T11:00:44;5.10;99.90
18446;DHT22;9352;50.888;4.466;2024-01-15T11:03:11;5.10;99.90
18446;DHT22;9352;50.888;4.466;2024-01-15T11:05:41;5.30;99.90
18446;DHT22;9352;50.888;4.466;2024-01-15T11:08:08;5.70;99.90
18446;DHT22;9352;50.888;4.466;2024-01-15T11:10:39;5.80;99.90
18446;DHT22;9352;50.888;4.466;2024-01-15T11:13:09;5.90;99.90
18446;DHT22;9352;50.888;4.466;2024-01-15T11:15:55;5.70;99.90
18446;DHT22;9352;50.888;4.466;2024-01-15T11:18:22;5.40;99.90
18446;DHT22;9352;50.888;4.466;2024-01-15T11:21:22;5.20;99.90
18446;DHT22;9352;50.888;4.466;2024-01-15T11:23:52;5.00;99.90
18446;DHT22;9352;50.888;4.466;2024-01-15T11:26:34;5.10;99.90
18446;DHT22;9352;50.888;4.466;2024-01-15T11:29:03;5.10;99.90
18446;DHT22;9352;50.888;4.466;2024-01-15T11:31:59;5.10;99.90
18446;DHT22;9352;50.888;4.466;2024-01-15T11:34:56;5.00;99.90
18446;DHT22;9352;50.888;4.466;2024-01-15T11:37:25;5.00;99.90
18446;DHT22;9352;50.888;4.466;2024-01-15T11:39:53;4.90;99.90
18446;DHT22;9352;50.888;4.466;2024-01-15T11:42:21;4.80;99.90
18446;DHT22;9352;50.888;4.466;2024-01-15T11:44:49;4.80;99.90
18446;DHT22;9352;50.888;4.466;2024-01-15T11:50:03;4.70;99.90
18446;DHT22;9352;50.888;4.466;2024-01-15T11:52:33;4.90;99.90
18446;DHT22;9352;50.888;4.466;2024-01-15T11:55:10;5.00;99.90
18446;DHT22;9352;50.888;4.466;2024-01-15T11:57:42;5.00;99.90
18446;DHT22;9352;50.888;4.466;2024-01-15T12:00:13;5.10;99.90
18446;DHT22;9352;50.888;4.466;2024-01-15T12:02:42;5.00;99.90
18446;DHT22;9352;50.888;4.466;2024-01-15T12:05:09;5.10;99.90
18446;DHT22;9352;50.888;4.466;2024-01-15T12:07:38;5.00;99.90
18446;DHT22;9352;50.888;4.466;2024-01-15T12:10:08;4.90;99.90
18446;DHT22;9352;50.888;4.466;2024-01-15T12:12:50;5.00;99.90
18446;DHT22;9352;50.888;4.466;2024-01-15T12:15:20;5.00;99.90
18446;DHT22;9352;50.888;4.466;2024-01-15T12:17:48;4.90;99.90
18446;DHT22;9352;50.888;4.466;2024-01-15T12:20:16;5.10;99.90
18446;DHT22;9352;50.888;4.466;2024-01-15T12:22:43;5.00;99.90
18446;DHT22;9352;50.888;4.466;2024-01-15T12:25:11;5.10;99.90
18446;DHT22;9352;50.888;4.466;2024-01-15T12:27:38;5.00;99.90
18446;DHT22;9352;50.888;4.466;2024-01-15T12:30:06;5.00;99.90
18446;DHT22;9352;50.888;4.466;2024-01-15T12:32:34;5.20;99.90
18446;DHT22;9352;50.888;4.466;2024-01-15T12:35:03;5.10;99.90
18446;DHT22;9352;50.888;4.466;2024-01-15T12:37:30;5.10;99.90
18446;DHT22;9352;50.888;4.466;2024-01-15T12:39:59;5.00;99.90
18446;DHT22;9352;50.888;4.466;2024-01-15T12:42:26;5.00;99.90
18446;DHT22;9352;50.888;4.466;2024-01-15T12:44:55;4.80;99.90
18446;DHT22;9352;50.888;4.466;2024-01-15T12:47:22;4.80;99.90
18446;DHT22;9352;50.888;4.466;2024-01-15T12:49:51;4.70;99.90
18446;DHT22;9352;50.888;4.466;2024-01-15T12:52:21;4.70;99.90
18446;DHT22;9352;50.888;4.466;2024-01-15T12:54:49;4.50;99.90
18446;DHT22;9352;50.888;4.466;2024-01-15T12:57:17;4.50;99.90
18446;DHT22;9352;50.888;4.466;2024-01-15T12:59:44;4.70;99.90
18446;DHT22;9352;50.888;4.466;2024-01-15T13:02:11;4.80;99.90
18446;DHT22;9352;50.888;4.466;2024-01-15T13:04:38;4.70;99.90
18446;DHT22;9352;50.888;4.466;2024-01-15T13:07:05;4.70;99.90
18446;DHT22;9352;50.888;4.466;2024-01-15T13:09:34;4.80;99.90
18446;DHT22;9352;50.888;4.466;2024-01-15T13:12:01;4.90;99.90
18446;DHT22;9352;50.888;4.466;2024-01-15T13:14:28;4.90;99.90
18446;DHT22;9352;50.888;4.466;2024-01-15T13:16:55;5.00;99.90
18446;DHT22;9352;50.888;4.466;2024-01-15T13:19:24;5.00;99.90
18446;DHT22;9352;50.888;4.466;2024-01-15T13:21:51;5.10;99.90
18446;DHT22;9352;50.888;4.466;2024-01-15T13:24:19;5.10;99.90
18446;DHT22;9352;50.888;4.466;2024-01-15T13:26:47;5.20;99.90
18446;DHT22;9352;50.888;4.466;2024-01-15T13:29:14;4.90;99.90
18446;DHT22;9352;50.888;4.466;2024-01-15T13:31:41;4.80;99.90
18446;DHT22;9352;50.888;4.466;2024-01-15T13:34:08;4.90;99.90
18446;DHT22;9352;50.888;4.466;2024-01-15T13:36:35;4.70;99.90
18446;DHT22;9352;50.888;4.466;2024-01-15T13:39:04;4.80;99.90
18446;DHT22;9352;50.888;4.466;2024-01-15T13:41:34;4.70;99.90
18446;DHT22;9352;50.888;4.466;2024-01-15T13:44:03;4.50;99.90
18446;DHT22;9352;50.888;4.466;2024-01-15T13:46:30;4.30;99.90
18446;DHT22;9352;50.888;4.466;2024-01-15T13:48:56;4.30;99.90
18446;DHT22;9352;50.888;4.466;2024-01-15T13:51:23;3.80;99.90
18446;DHT22;9352;50.888;4.466;2024-01-15T13:53:50;3.30;99.90
18446;DHT22;9352;50.888;4.466;2024-01-15T13:56:18;2.70;99.90
18446;DHT22;9352;50.888;4.466;2024-01-15T13:58:46;2.30;99.90
18446;DHT22;9352;50.888;4.466;2024-01-15T14:01:15;2.20;99.90
18446;DHT22;9352;50.888;4.466;2024-01-15T14:03:43;2.10;99.90
18446;DHT22;9352;50.888;4.466;2024-01-15T14:06:09;2.20;99.90
18446;DHT22;9352;50.888;4.466;2024-01-15T14:08:37;2.00;99.90
18446;DHT22;9352;50.888;4.466;2024-01-15T14:11:04;2.00;99.90
18446;DHT22;9352;50.888;4.466;2024-01-15T14:13:32;2.10;99.90
18446;DHT22;9352;50.888;4.466;2024-01-15T14:15:59;2.10;99.90
18446;DHT22;9352;50.888;4.466;2024-01-15T14:18:27;2.30;99.90
18446;DHT22;9352;50.888;4.466;2024-01-15T14:20:54;2.40;99.90
18446;DHT22;9352;50.888;4.466;2024-01-15T14:23:21;2.40;99.90
18446;DHT22;9352;50.888;4.466;2024-01-15T14:25:48;2.50;99.90
18446;DHT22;9352;50.888;4.466;2024-01-15T14:28:15;2.60;99.90
18446;DHT22;9352;50.888;4.466;2024-01-15T14:30:42;2.50;99.90
18446;DHT22;9352;50.888;4.466;2024-01-15T14:33:09;2.60;99.90
18446;DHT22;9352;50.888;4.466;2024-01-15T14:35:37;2.50;99.90
18446;DHT22;9352;50.888;4.466;2024-01-15T14:38:04;2.30;99.90
18446;DHT22;9352;50.888;4.466;2024-01-15T14:40:33;2.20;99.90
18446;DHT22;9352;50.888;4.466;2024-01-15T14:43:00;2.20;99.90
18446;DHT22;9352;50.888;4.466;2024-01-15T14:45:27;2.30;99.90
18446;DHT22;9352;50.888;4.466;2024-01-15T14:47:55;2.30;99.90
18446;DHT22;9352;50.888;4.466;2024-01-15T14:50:24;2.40;99.90
18446;DHT22;9352;50.888;4.466;2024-01-15T14:52:52;2.40;99.90
18446;DHT22;9352;50.888;4.466;2024-01-15T14:55:19;2.50;99.90
18446;DHT22;9352;50.888;4.466;2024-01-15T14:57:48;2.40;99.90
18446;DHT22;9352;50.888;4.466;2024-01-15T15:00:16;2.40;99.90
18446;DHT22;9352;50.888;4.466;2024-01-15T15:02:43;2.30;99.90
18446;DHT22;9352;50.888;4.466;2024-01-15T15:05:10;2.30;99.90
18446;DHT22;9352;50.888;4.466;2024-01-15T15:07:38;2.30;99.90
18446;DHT22;9352;50.888;4.466;2024-01-15T15:10:08;2.30;99.90
18446;DHT22;9352;50.888;4.466;2024-01-15T15:12:36;2.30;99.90
18446;DHT22;9352;50.888;4.466;2024-01-15T15:15:04;2.40;99.90
18446;DHT22;9352;50.888;4.466;2024-01-15T15:17:30;2.30;99.90
18446;DHT22;9352;50.888;4.466;2024-01-15T15:19:57;2.30;99.90
18446;DHT22;9352;50.888;4.466;2024-01-15T15:22:24;2.30;99.90
18446;DHT22;9352;50.888;4.466;2024-01-15T15:24:51;2.20;99.90
18446;DHT22;9352;50.888;4.466;2024-01-15T15:27:20;2.20;99.90
18446;DHT22;9352;50.888;4.466;2024-01-15T15:29:47;2.20;99.90
18446;DHT22;9352;50.888;4.466;2024-01-15T15:32:16;2.30;99.90
18446;DHT22;9352;50.888;4.466;2024-01-15T15:34:43;2.30;99.90
18446;DHT22;9352;50.888;4.466;2024-01-15T15:37:09;2.30;99.90
18446;DHT22;9352;50.888;4.466;2024-01-15T15:39:36;2.30;99.90
18446;DHT22;9352;50.888;4.466;2024-01-15T15:42:03;2.30;99.90
18446;DHT22;9352;50.888;4.466;2024-01-15T15:44:32;2.30;99.90
18446;DHT22;9352;50.888;4.466;2024-01-15T15:46:58;2.30;99.90
18446;DHT22;9352;50.888;4.466;2024-01-15T15:49:25;2.30;99.90
18446;DHT22;9352;50.888;4.466;2024-01-15T15:51:52;2.30;99.90
18446;DHT22;9352;50.888;4.466;2024-01-15T15:54:19;2.30;99.90
18446;DHT22;9352;50.888;4.466;2024-01-15T15:56:46;2.30;99.90
18446;DHT22;9352;50.888;4.466;2024-01-15T15:59:15;2.30;99.90
18446;DHT22;9352;50.888;4.466;2024-01-15T16:01:47;2.30;99.90
18446;DHT22;9352;50.888;4.466;2024-01-15T16:04:14;2.30;99.90
18446;DHT22;9352;50.888;4.466;2024-01-15T16:06:41;2.20;99.90
18446;DHT22;9352;50.888;4.466;2024-01-15T16:09:08;2.20;99.90